Time;durP1;ratioP1;P1;durP2;ratioP2;P2;SDS_P1;SDS_P2;PMS_P1;PMS_P2;Temp;Humidity;BMP_temperature;BMP_pressure;BME280_temperature;BME280_humidity;BME280_pressure;Samples;Min_cycle;Max_cycle;Signal;HPM_P1;HPM_P2
2022/03/02 00:01:01;;;;;;;9.65;4.28;;;21.40;79.40;;;;;;5013147;28;20060;-77
2022/03/02 00:03:27;;;;;;;14.57;5.43;;;21.40;79.50;;;;;;5015850;28;20030;-77
2022/03/02 00:05:52;;;;;;;8.00;4.57;;;21.40;79.40;;;;;;5016412;28;20034;-78
2022/03/02 00:08:18;;;;;;;11.73;5.50;;;21.40;79.50;;;;;;5012792;28;20037;-77
2022/03/02 00:10:44;;;;;;;11.68;4.72;;;21.40;79.60;;;;;;5017035;28;20048;-77
2022/03/02 00:13:12;;;;;;;9.68;4.78;;;21.40;79.60;;;;;;5015652;28;20526;-78
2022/03/02 00:15:38;;;;;;;9.80;4.47;;;21.40;79.70;;;;;;5008491;28;20378;-78
2022/03/02 00:18:04;;;;;;;12.02;4.90;;;21.40;79.70;;;;;;5013823;28;20036;-78
2022/03/02 00:20:30;;;;;;;9.70;4.78;;;21.40;79.80;;;;;;5016469;28;20021;-78
2022/03/02 00:22:55;;;;;;;7.88;4.35;;;21.40;79.90;;;;;;5014222;28;20045;-78
2022/03/02 00:25:21;;;;;;;10.65;5.25;;;21.40;79.90;;;;;;5015432;28;20038;-77
2022/03/02 00:27:47;;;;;;;10.48;4.88;;;21.40;80.00;;;;;;5014396;28;20124;-78
2022/03/02 00:30:13;;;;;;;7.57;4.25;;;21.40;79.90;;;;;;5013732;28;20053;-78
2022/03/02 00:32:40;;;;;;;9.27;5.00;;;21.40;80.00;;;;;;5013909;28;20121;-78
2022/03/02 00:35:06;;;;;;;6.63;4.28;;;21.40;80.00;;;;;;5017753;28;20021;-77
2022/03/02 00:37:32;;;;;;;8.90;4.32;;;21.40;80.10;;;;;;5013383;28;20045;-78
2022/03/02 00:40:00;;;;;;;9.52;4.88;;;21.40;80.10;;;;;;5013637;28;20428;-77
2022/03/02 00:42:26;;;;;;;10.93;4.65;;;21.40;80.10;;;;;;5025908;28;20180;-78
2022/03/02 00:44:51;;;;;;;8.45;4.00;;;21.40;80.20;;;;;;5014362;28;20108;-78
2022/03/02 00:47:19;;;;;;;7.80;5.05;;;21.30;80.20;;;;;;5012076;28;20033;-77
2022/03/02 00:49:48;;;;;;;7.68;4.78;;;21.30;80.20;;;;;;5010124;28;20056;-78
2022/03/02 00:52:14;;;;;;;11.18;4.53;;;21.30;80.20;;;;;;5013467;28;20075;-78
2022/03/02 00:54:40;;;;;;;7.57;4.22;;;21.30;80.30;;;;;;5014745;28;20033;-77
2022/03/02 00:57:06;;;;;;;10.77;4.75;;;21.30;80.30;;;;;;5015456;28;20169;-77
2022/03/02 00:59:32;;;;;;;8.15;4.60;;;21.30;80.40;;;;;;5015517;28;20112;-77
2022/03/02 01:01:58;;;;;;;8.65;4.57;;;21.30;80.40;;;;;;5015797;28;20030;-78
2022/03/02 01:04:23;;;;;;;7.88;4.15;;;21.30;80.40;;;;;;5014718;28;20167;-77
2022/03/02 01:06:49;;;;;;;8.32;3.97;;;21.30;80.40;;;;;;5013865;28;20018;-76
2022/03/02 01:09:15;;;;;;;10.20;5.18;;;21.30;80.40;;;;;;5013023;28;20026;-78
2022/03/02 01:11:41;;;;;;;9.55;4.65;;;21.30;80.50;;;;;;5013645;28;20018;-78
2022/03/02 01:14:06;;;;;;;9.20;4.35;;;21.30;80.50;;;;;;5014200;28;20156;-77
2022/03/02 01:16:33;;;;;;;8.07;3.95;;;21.30;80.50;;;;;;5014298;28;20640;-77
2022/03/02 01:18:58;;;;;;;5.95;3.28;;;21.20;80.50;;;;;;5016800;28;20162;-77
2022/03/02 01:21:24;;;;;;;11.20;4.47;;;21.20;80.50;;;;;;5016729;28;20081;-77
2022/03/02 01:23:53;;;;;;;8.80;3.90;;;21.30;80.70;;;;;;5018893;28;20029;-78
2022/03/02 01:26:22;;;;;;;6.22;4.30;;;21.20;80.70;;;;;;5017683;28;20117;-78
2022/03/02 01:28:49;;;;;;;9.93;4.68;;;21.20;80.80;;;;;;5015274;28;20362;-77
2022/03/02 01:31:15;;;;;;;8.38;4.10;;;21.20;80.80;;;;;;5015203;28;20026;-78
2022/03/02 01:33:40;;;;;;;6.88;4.07;;;21.20;80.80;;;;;;5016385;28;20125;-77
2022/03/02 01:36:06;;;;;;;12.95;4.30;;;21.20;80.90;;;;;;5016846;28;20056;-77
2022/03/02 01:38:34;;;;;;;9.18;4.07;;;21.20;80.90;;;;;;5017697;28;20025;-78
2022/03/02 01:41:00;;;;;;;8.00;4.00;;;21.20;80.90;;;;;;5015531;28;20027;-77
2022/03/02 01:43:27;;;;;;;6.85;3.53;;;21.20;81.00;;;;;;5016810;28;20036;-78
2022/03/02 01:45:53;;;;;;;8.48;4.40;;;21.10;80.90;;;;;;5019671;28;20075;-78
2022/03/02 01:48:19;;;;;;;8.27;3.72;;;21.10;81.00;;;;;;5013093;28;20025;-76
2022/03/02 01:50:45;;;;;;;7.68;4.20;;;21.10;81.00;;;;;;5016949;28;20033;-77
2022/03/02 01:53:12;;;;;;;7.78;3.92;;;21.10;81.00;;;;;;5016949;28;20080;-78
2022/03/02 01:55:38;;;;;;;8.43;3.45;;;21.10;81.10;;;;;;5017921;28;20120;-78
2022/03/02 01:58:04;;;;;;;6.82;3.88;;;21.10;81.10;;;;;;5017554;28;20132;-77
2022/03/02 02:00:32;;;;;;;10.38;4.18;;;21.10;81.10;;;;;;5016854;28;20054;-78
2022/03/02 02:02:58;;;;;;;5.72;3.58;;;21.10;81.10;;;;;;5013451;28;20413;-78
2022/03/02 02:05:24;;;;;;;6.60;3.75;;;21.10;81.20;;;;;;5017564;28;20030;-77
2022/03/02 02:07:52;;;;;;;7.63;4.18;;;21.10;81.20;;;;;;5014919;28;20050;-78
2022/03/02 02:10:18;;;;;;;6.95;3.83;;;21.10;81.20;;;;;;5013234;28;20053;-78
2022/03/02 02:12:43;;;;;;;8.45;3.65;;;21.00;81.20;;;;;;5009983;28;20111;-77
2022/03/02 02:15:10;;;;;;;10.93;3.20;;;21.10;81.30;;;;;;5015886;28;20050;-77
2022/03/02 02:17:37;;;;;;;7.75;4.15;;;21.00;81.20;;;;;;5017119;28;20128;-77
2022/03/02 02:20:06;;;;;;;8.25;3.45;;;21.00;81.30;;;;;;5016293;28;20143;-77
2022/03/02 02:22:36;;;;;;;7.13;3.90;;;21.00;81.30;;;;;;5015324;28;20406;-76
2022/03/02 02:25:02;;;;;;;7.45;3.60;;;21.00;81.30;;;;;;5017924;28;20026;-77
2022/03/02 02:27:28;;;;;;;6.13;3.33;;;21.00;81.30;;;;;;5015369;28;20113;-77
2022/03/02 02:29:55;;;;;;;7.80;3.60;;;21.00;81.40;;;;;;5015165;28;20419;-78
2022/03/02 02:32:23;;;;;;;5.97;3.50;;;21.00;81.40;;;;;;5010349;28;20052;-77
2022/03/02 02:34:49;;;;;;;6.95;3.72;;;21.00;81.40;;;;;;5014032;28;20030;-78
2022/03/02 02:37:14;;;;;;;7.95;3.70;;;21.00;81.40;;;;;;5015236;28;20026;-77
2022/03/02 02:39:40;;;;;;;7.13;3.55;;;20.90;81.50;;;;;;5016408;28;20458;-77
2022/03/02 02:42:08;;;;;;;6.97;3.67;;;20.90;81.50;;;;;;5015828;28;20036;-78
2022/03/02 02:44:34;;;;;;;7.00;3.30;;;20.90;81.60;;;;;;5015368;28;21656;-78
2022/03/02 02:47:03;;;;;;;6.32;3.25;;;20.90;81.60;;;;;;5017328;28;20057;-78
2022/03/02 02:49:29;;;;;;;7.57;4.03;;;20.90;81.60;;;;;;5016423;28;20045;-78
2022/03/02 02:51:55;;;;;;;6.72;3.55;;;20.90;81.70;;;;;;5014750;28;20083;-78
2022/03/02 02:54:21;;;;;;;4.28;2.53;;;20.90;81.70;;;;;;5011814;28;20026;-76
2022/03/02 02:56:47;;;;;;;7.78;3.65;;;20.90;81.80;;;;;;5010082;28;20025;-77
2022/03/02 02:59:12;;;;;;;6.40;3.40;;;20.90;81.80;;;;;;5018602;28;20022;-77
2022/03/02 03:01:38;;;;;;;6.35;3.38;;;20.90;82.50;;;;;;5014001;28;20030;-78
2022/03/02 03:04:06;;;;;;;5.78;3.47;;;20.90;82.10;;;;;;5017242;28;20037;-77
2022/03/02 03:06:33;;;;;;;6.32;4.03;;;20.90;81.90;;;;;;5015392;28;20080;-77
2022/03/02 03:08:58;;;;;;;5.07;3.58;;;20.90;81.90;;;;;;5027227;28;20479;-77
2022/03/02 03:11:24;;;;;;;6.53;3.20;;;20.90;81.90;;;;;;5014572;28;20030;-78
2022/03/02 03:13:49;;;;;;;7.00;3.83;;;20.90;82.50;;;;;;5016248;28;20048;-79
2022/03/02 03:16:15;;;;;;;7.72;3.45;;;20.80;81.90;;;;;;5015455;28;20080;-77
2022/03/02 03:18:43;;;;;;;5.10;3.28;;;20.80;81.90;;;;;;5015775;28;20033;-78
2022/03/02 03:21:09;;;;;;;4.82;3.20;;;20.80;82.00;;;;;;5016075;28;20033;-78
2022/03/02 03:23:37;;;;;;;5.90;3.05;;;20.80;82.00;;;;;;5013365;28;20088;-77
2022/03/02 03:26:02;;;;;;;6.15;3.60;;;20.80;82.00;;;;;;5016681;28;20026;-78
2022/03/02 03:28:28;;;;;;;5.80;2.97;;;20.80;82.00;;;;;;5017687;28;20029;-77
2022/03/02 03:30:55;;;;;;;9.02;3.25;;;20.80;82.00;;;;;;5017651;28;20087;-77
2022/03/02 03:33:21;;;;;;;5.05;3.25;;;20.80;82.00;;;;;;5009236;28;20034;-78
2022/03/02 03:35:46;;;;;;;5.57;3.30;;;20.80;82.10;;;;;;5016350;28;20512;-78
2022/03/02 03:38:12;;;;;;;5.25;3.35;;;20.80;82.10;;;;;;5016521;28;20022;-77
2022/03/02 03:40:38;;;;;;;6.88;3.05;;;20.80;82.10;;;;;;5014974;28;20022;-78
2022/03/02 03:43:03;;;;;;;6.28;3.63;;;20.80;82.20;;;;;;5014859;28;20025;-78
2022/03/02 03:45:29;;;;;;;5.85;3.35;;;20.70;82.10;;;;;;5013003;28;20021;-77
2022/03/02 03:47:55;;;;;;;7.18;3.22;;;20.80;82.20;;;;;;5013419;28;20458;-78
2022/03/02 03:50:21;;;;;;;5.32;3.00;;;20.70;82.20;;;;;;5014993;28;20037;-77
2022/03/02 03:52:47;;;;;;;5.65;3.38;;;20.70;82.20;;;;;;5016200;28;20021;-77
2022/03/02 03:55:14;;;;;;;5.93;3.17;;;20.70;82.20;;;;;;5012437;28;20087;-77
2022/03/02 03:57:43;;;;;;;7.65;3.80;;;20.70;82.20;;;;;;5015421;28;20418;-78
2022/03/02 04:00:15;;;;;;;5.82;3.22;;;20.70;82.20;;;;;;5016555;28;20029;-77
2022/03/02 04:02:41;;;;;;;7.78;3.67;;;20.70;82.20;;;;;;5014394;28;20029;-77
2022/03/02 04:05:07;;;;;;;6.20;2.88;;;20.70;82.30;;;;;;5015908;28;20041;-78
2022/03/02 04:07:32;;;;;;;7.78;2.55;;;20.70;82.30;;;;;;5012170;28;20025;-78
2022/03/02 04:10:01;;;;;;;6.55;3.53;;;20.70;82.30;;;;;;5016094;28;20045;-78
2022/03/02 04:12:27;;;;;;;5.43;3.00;;;20.70;82.30;;;;;;5017448;28;20018;-76
2022/03/02 04:14:52;;;;;;;5.50;3.20;;;20.70;82.30;;;;;;5015368;28;20049;-78
2022/03/02 04:17:18;;;;;;;6.10;2.78;;;20.70;82.30;;;;;;5014608;28;20050;-78
2022/03/02 04:19:44;;;;;;;5.47;3.28;;;20.70;83.00;;;;;;5015039;28;20108;-77
2022/03/02 04:22:09;;;;;;;4.78;3.30;;;20.70;82.40;;;;;;5014004;28;20045;-77
2022/03/02 04:24:35;;;;;;;4.18;2.63;;;20.70;82.40;;;;;;5015062;28;20060;-77
2022/03/02 04:27:00;;;;;;;6.70;3.17;;;20.70;82.40;;;;;;5014143;28;20029;-77
2022/03/02 04:29:26;;;;;;;4.85;2.88;;;20.70;82.40;;;;;;5014930;28;20057;-77
2022/03/02 04:31:51;;;;;;;5.07;2.83;;;20.70;82.40;;;;;;5013622;28;20034;-78
2022/03/02 04:34:17;;;;;;;4.10;3.25;;;20.70;82.40;;;;;;5013792;28;20068;-78
2022/03/02 04:36:43;;;;;;;4.70;2.78;;;20.70;82.40;;;;;;5017395;28;20030;-77
2022/03/02 04:39:08;;;;;;;4.25;2.75;;;20.70;82.60;;;;;;5014412;28;20627;-78
2022/03/02 04:41:34;;;;;;;5.25;2.80;;;20.70;82.50;;;;;;5014994;28;20037;-78
2022/03/02 04:44:00;;;;;;;4.85;3.45;;;20.70;82.50;;;;;;5013714;28;21008;-77
2022/03/02 04:46:25;;;;;;;6.95;2.90;;;20.70;82.50;;;;;;5013990;28;20083;-78
2022/03/02 04:48:51;;;;;;;3.58;2.78;;;20.70;82.50;;;;;;5013957;28;20049;-77
2022/03/02 04:51:18;;;;;;;4.13;2.50;;;20.60;82.50;;;;;;5012278;28;20116;-77
2022/03/02 04:53:43;;;;;;;5.10;2.47;;;20.60;82.50;;;;;;5014415;28;20025;-78
2022/03/02 04:56:09;;;;;;;5.15;3.30;;;20.60;82.50;;;;;;5015964;28;20029;-77
2022/03/02 04:58:34;;;;;;;4.55;2.72;;;20.60;82.50;;;;;;5016549;28;20053;-78
2022/03/02 05:01:00;;;;;;;5.53;3.42;;;20.60;82.50;;;;;;5017245;28;20095;-78
2022/03/02 05:03:25;;;;;;;5.05;2.65;;;20.60;82.60;;;;;;5017729;28;20043;-78
2022/03/02 05:05:54;;;;;;;6.45;2.90;;;20.60;82.60;;;;;;5016549;28;20033;-77
2022/03/02 05:08:19;;;;;;;6.15;2.47;;;20.70;82.60;;;;;;5018092;28;20046;-77
2022/03/02 05:10:45;;;;;;;8.68;3.28;;;20.70;82.60;;;;;;5017806;28;20115;-78
2022/03/02 05:13:10;;;;;;;4.78;2.92;;;20.70;82.60;;;;;;5015949;28;20474;-78
2022/03/02 05:15:36;;;;;;;5.57;2.88;;;20.70;82.60;;;;;;5018613;28;20017;-77
2022/03/02 05:18:02;;;;;;;4.18;2.60;;;20.70;82.70;;;;;;5016676;28;20022;-77
2022/03/02 05:20:28;;;;;;;5.38;2.63;;;20.70;82.70;;;;;;5017261;28;20695;-77
2022/03/02 05:22:54;;;;;;;5.32;2.72;;;20.70;82.60;;;;;;5018619;28;20030;-77
2022/03/02 05:25:20;;;;;;;4.85;2.67;;;20.70;82.50;;;;;;5017695;28;20805;-78
2022/03/02 05:27:46;;;;;;;4.65;2.70;;;20.70;82.60;;;;;;5015665;28;20025;-76
2022/03/02 05:30:12;;;;;;;4.88;2.78;;;20.70;82.60;;;;;;5018704;28;20357;-78
2022/03/02 05:32:38;;;;;;;4.95;2.78;;;20.70;82.60;;;;;;5018554;28;20231;-78
2022/03/02 05:35:06;;;;;;;4.78;2.65;;;20.70;82.60;;;;;;5030510;28;20026;-78
2022/03/02 05:37:32;;;;;;;5.53;2.50;;;20.80;82.60;;;;;;5018067;28;20030;-78
2022/03/02 05:39:57;;;;;;;4.32;2.58;;;20.80;82.60;;;;;;5015959;28;20029;-77
2022/03/02 05:42:23;;;;;;;4.63;2.33;;;20.80;82.50;;;;;;5020636;28;20445;-77
2022/03/02 05:44:49;;;;;;;4.57;2.95;;;20.80;82.50;;;;;;5020321;28;20055;-78
2022/03/02 05:47:15;;;;;;;3.85;2.72;;;20.80;82.50;;;;;;5020069;28;20061;-77
2022/03/02 05:49:40;;;;;;;3.45;2.00;;;20.80;82.50;;;;;;5016845;28;21616;-77
2022/03/02 05:52:06;;;;;;;5.63;2.28;;;20.80;82.50;;;;;;5015551;28;20037;-78
2022/03/02 05:54:31;;;;;;;3.05;1.98;;;20.80;82.50;;;;;;5016351;28;20022;-77
2022/03/02 05:56:57;;;;;;;7.57;3.15;;;20.80;82.50;;;;;;5017345;28;20447;-79
2022/03/02 05:59:23;;;;;;;3.25;2.53;;;20.80;82.50;;;;;;5017390;28;20026;-77
2022/03/02 06:01:49;;;;;;;2.88;1.92;;;20.80;82.50;;;;;;5019961;28;20454;-77
2022/03/02 06:04:14;;;;;;;5.18;2.92;;;20.80;82.40;;;;;;5016518;28;20357;-77
2022/03/02 06:06:43;;;;;;;4.18;2.65;;;20.80;82.50;;;;;;5015602;28;20109;-77
2022/03/02 06:09:10;;;;;;;4.63;2.58;;;20.80;82.50;;;;;;5015986;28;20029;-78
2022/03/02 06:11:37;;;;;;;4.88;2.58;;;20.80;82.50;;;;;;5018120;28;20025;-77
2022/03/02 06:14:04;;;;;;;4.50;2.67;;;20.80;82.50;;;;;;5013435;28;20113;-76
2022/03/02 06:16:30;;;;;;;4.38;2.53;;;20.90;82.50;;;;;;5033088;28;20022;-78
2022/03/02 06:18:58;;;;;;;7.10;2.75;;;20.80;82.40;;;;;;5016161;28;20040;-77
2022/03/02 06:21:26;;;;;;;6.07;2.58;;;20.90;82.50;;;;;;5016575;28;20033;-78
2022/03/02 06:23:55;;;;;;;4.38;2.33;;;20.90;82.50;;;;;;5012674;28;20058;-77
2022/03/02 06:26:22;;;;;;;4.03;2.22;;;20.90;82.50;;;;;;5016495;28;20138;-77
2022/03/02 06:28:49;;;;;;;6.82;2.50;;;20.90;82.50;;;;;;5034791;28;20072;-77
2022/03/02 06:31:18;;;;;;;4.22;2.47;;;20.90;82.50;;;;;;5013904;28;20925;-78
2022/03/02 06:33:47;;;;;;;5.30;2.25;;;20.90;82.50;;;;;;5015427;28;20022;-77
2022/03/02 06:36:13;;;;;;;2.83;2.22;;;20.90;82.50;;;;;;5028043;28;20508;-77
2022/03/02 06:38:38;;;;;;;5.57;2.25;;;20.90;82.50;;;;;;5013885;28;20040;-77
2022/03/02 06:41:24;;;;;;;4.35;2.70;;;20.90;82.50;;;;;;5015331;28;20030;-77
2022/03/02 06:44:18;;;;;;;2.50;2.00;;;20.90;82.50;;;;;;5013583;28;20818;-76
2022/03/02 06:47:09;;;;;;;3.08;2.20;;;20.90;82.50;;;;;;5015689;28;20061;-76
2022/03/02 06:49:56;;;;;;;4.40;2.55;;;20.90;82.50;;;;;;5010183;28;20026;-77
2022/03/02 06:52:24;;;;;;;3.75;2.08;;;21.00;82.50;;;;;;5016252;28;20454;-77
2022/03/02 06:54:54;;;;;;;4.70;2.20;;;20.90;82.50;;;;;;5030679;28;20048;-78
2022/03/02 06:57:27;;;;;;;5.22;2.88;;;21.00;82.50;;;;;;5019465;28;20029;-78
2022/03/02 06:59:53;;;;;;;3.72;1.77;;;21.00;82.50;;;;;;5018292;28;20026;-79
2022/03/02 07:02:28;;;;;;;3.65;2.25;;;21.00;82.40;;;;;;5016053;28;20036;-76
2022/03/02 07:04:55;;;;;;;4.78;2.55;;;21.00;82.40;;;;;;5030537;28;20040;-77
2022/03/02 07:07:21;;;;;;;4.82;2.13;;;21.00;82.30;;;;;;5010711;28;20049;-77
2022/03/02 07:09:49;;;;;;;2.90;2.15;;;21.00;82.20;;;;;;5016135;28;20025;-78
2022/03/02 07:12:19;;;;;;;4.50;2.05;;;21.00;82.20;;;;;;5015819;28;20026;-77
2022/03/02 07:14:45;;;;;;;3.30;1.80;;;21.00;82.10;;;;;;5011745;28;20022;-77
2022/03/02 07:17:13;;;;;;;4.28;2.03;;;21.10;82.10;;;;;;5017747;28;20021;-78
2022/03/02 07:19:39;;;;;;;3.97;1.83;;;21.10;82.10;;;;;;5012727;28;20327;-78
2022/03/02 07:22:06;;;;;;;5.28;2.40;;;21.10;82.10;;;;;;5016098;28;20056;-77
2022/03/02 07:24:38;;;;;;;5.43;1.70;;;21.10;82.10;;;;;;5013631;28;20083;-77
2022/03/02 07:27:04;;;;;;;5.50;2.13;;;21.00;82.10;;;;;;5016113;28;20053;-77
2022/03/02 07:29:34;;;;;;;4.65;2.13;;;21.10;82.20;;;;;;5016334;28;20068;-77
2022/03/02 07:32:04;;;;;;;4.60;2.33;;;21.10;82.20;;;;;;5025539;28;20030;-76
2022/03/02 07:34:32;;;;;;;5.35;2.13;;;21.10;82.20;;;;;;5014593;28;20421;-76
2022/03/02 07:37:00;;;;;;;4.20;2.55;;;21.10;82.20;;;;;;5026356;28;20032;-78
2022/03/02 07:39:30;;;;;;;3.03;1.90;;;21.10;82.30;;;;;;5009318;28;20029;-76
2022/03/02 07:41:57;;;;;;;4.53;2.13;;;21.10;82.30;;;;;;5014422;28;20029;-77
2022/03/02 07:44:27;;;;;;;2.60;1.83;;;21.20;82.30;;;;;;5016423;28;20021;-77
2022/03/02 07:46:52;;;;;;;4.20;2.25;;;21.20;82.30;;;;;;5013831;28;20048;-78
2022/03/02 07:49:20;;;;;;;2.22;1.48;;;21.20;82.20;;;;;;5016090;28;20029;-77
2022/03/02 07:51:46;;;;;;;3.15;1.63;;;21.20;82.20;;;;;;5015627;28;20428;-77
2022/03/02 07:54:14;;;;;;;3.97;1.88;;;21.20;82.20;;;;;;5029514;28;20041;-76
2022/03/02 07:56:40;;;;;;;2.92;1.70;;;21.20;82.20;;;;;;5014565;28;20022;-78
2022/03/02 07:59:08;;;;;;;5.90;1.80;;;21.20;82.20;;;;;;5014441;28;20032;-76
2022/03/02 08:01:35;;;;;;;2.13;1.42;;;21.30;82.20;;;;;;5011047;28;20040;-77
2022/03/02 08:04:06;;;;;;;5.30;1.70;;;21.30;82.20;;;;;;5014076;28;20033;-77
2022/03/02 08:06:35;;;;;;;6.63;2.20;;;21.30;82.10;;;;;;5011486;28;20034;-76
2022/03/02 08:09:03;;;;;;;3.00;1.95;;;21.30;82.20;;;;;;5028882;28;20109;-77
2022/03/02 08:11:34;;;;;;;4.45;2.17;;;21.40;82.20;;;;;;5010813;28;20355;-77
2022/03/02 08:14:01;;;;;;;3.00;2.13;;;21.30;82.10;;;;;;5009986;28;20025;-76
2022/03/02 08:16:30;;;;;;;2.60;1.45;;;21.40;82.20;;;;;;5007390;28;20033;-78
2022/03/02 08:18:58;;;;;;;3.35;1.88;;;21.30;82.20;;;;;;5012673;28;20026;-77
2022/03/02 08:21:28;;;;;;;6.68;1.70;;;21.40;82.20;;;;;;5014611;28;20121;-78
2022/03/02 08:23:57;;;;;;;4.75;1.92;;;21.40;82.30;;;;;;5024388;28;20053;-77
2022/03/02 08:26:26;;;;;;;4.72;2.00;;;21.40;82.30;;;;;;5013677;28;20353;-77
2022/03/02 08:28:55;;;;;;;7.18;2.05;;;21.40;82.30;;;;;;5008206;28;20029;-77
2022/03/02 08:31:24;;;;;;;4.03;2.08;;;21.40;82.30;;;;;;5015436;28;20026;-78
2022/03/02 08:33:51;;;;;;;4.45;1.70;;;21.40;82.40;;;;;;5009229;28;20057;-76
2022/03/02 08:36:21;;;;;;;3.63;1.90;;;21.40;82.30;;;;;;5014306;28;20040;-77
2022/03/02 08:38:49;;;;;;;2.53;1.50;;;21.40;82.30;;;;;;5013051;28;20033;-78
2022/03/02 08:41:18;;;;;;;3.67;2.10;;;21.50;82.50;;;;;;5013402;28;20034;-78
2022/03/02 08:43:45;;;;;;;4.80;1.98;;;21.40;82.50;;;;;;5024783;28;20642;-78
2022/03/02 08:46:31;;;;;;;3.90;2.22;;;21.50;82.50;;;;;;5013615;28;20454;-78
2022/03/02 08:49:03;;;;;;;8.02;3.55;;;21.50;82.60;;;;;;5010661;28;20046;-77
2022/03/02 08:51:30;;;;;;;6.28;2.85;;;21.50;74.30;;;;;;5013782;28;20026;-77
2022/03/02 08:57:25;;;;;;;5.25;2.90;;;21.50;77.00;;;;;;5007897;28;20041;-76
2022/03/02 09:00:06;;;;;;;3.65;2.10;;;21.40;77.10;;;;;;5010184;28;20050;-77
2022/03/02 09:02:36;;;;;;;3.95;2.33;;;21.40;77.40;;;;;;5010723;28;20130;-76
2022/03/02 09:05:04;;;;;;;2.67;1.88;;;21.40;77.60;;;;;;5010981;28;20037;-76
2022/03/02 09:07:59;;;;;;;5.82;2.63;;;21.50;77.90;;;;;;5012374;28;20026;-76
2022/03/02 09:10:29;;;;;;;4.32;2.10;;;21.40;78.10;;;;;;5009611;28;20025;-75
2022/03/02 09:12:56;;;;;;;4.47;2.00;;;21.50;78.20;;;;;;5010621;28;20034;-77
2022/03/02 09:15:45;;;;;;;5.80;1.88;;;21.50;78.30;;;;;;5010320;28;20033;-75
2022/03/02 09:18:14;;;;;;;3.47;2.30;;;21.50;78.40;;;;;;4998995;28;20134;-78
2022/03/02 09:20:41;;;;;;;3.63;2.05;;;21.50;78.50;;;;;;5008991;28;20065;-77
2022/03/02 09:23:07;;;;;;;7.90;2.03;;;21.50;78.50;;;;;;5010021;28;20057;-77
2022/03/02 09:25:38;;;;;;;3.97;2.53;;;21.50;78.70;;;;;;5014027;28;20061;-77
2022/03/02 09:28:09;;;;;;;5.57;1.83;;;21.50;78.70;;;;;;5010431;28;20018;-77
2022/03/02 09:30:35;;;;;;;4.07;2.10;;;21.50;78.80;;;;;;5008616;28;20026;-76
2022/03/02 09:33:03;;;;;;;2.40;1.35;;;21.60;79.00;;;;;;5011859;28;20022;-77
2022/03/02 09:35:30;;;;;;;3.05;1.60;;;21.60;79.50;;;;;;5006234;28;21692;-77
2022/03/02 09:37:56;;;;;;;5.53;2.00;;;21.60;79.50;;;;;;5012385;28;20115;-77
2022/03/02 09:40:23;;;;;;;4.85;2.65;;;21.60;79.60;;;;;;5009924;28;20430;-77
2022/03/02 09:43:05;;;;;;;4.57;2.03;;;21.60;79.70;;;;;;5014319;28;20049;-78
2022/03/02 09:45:33;;;;;;;4.18;2.20;;;21.60;79.70;;;;;;5013808;28;20038;-77
2022/03/02 09:48:03;;;;;;;3.40;1.88;;;21.60;79.70;;;;;;5016373;28;20026;-78
2022/03/02 09:50:35;;;;;;;4.13;1.95;;;21.60;79.70;;;;;;5026047;28;20040;-77
2022/03/02 09:53:08;;;;;;;;;;;21.70;79.90;;;;;;5014399;28;20172;-77
2022/03/02 09:55:38;;;;;;;;;;;21.70;80.40;;;;;;5009949;28;19971;-77
2022/03/02 09:58:07;;;;;;;4.53;1.58;;;21.60;79.80;;;;;;5014785;28;20783;-77
2022/03/02 10:00:35;;;;;;;2.47;1.75;;;21.60;79.90;;;;;;5016561;28;20033;-78
2022/03/02 10:03:02;;;;;;;2.75;1.88;;;21.70;79.90;;;;;;5015293;28;20049;-76
2022/03/02 10:05:32;;;;;;;3.10;1.77;;;21.70;79.80;;;;;;5013167;28;20478;-78
2022/03/02 10:07:59;;;;;;;4.28;2.33;;;21.70;79.90;;;;;;5015204;28;20156;-77
2022/03/02 10:10:31;;;;;;;4.50;1.83;;;21.70;79.90;;;;;;5029628;28;20026;-78
2022/03/02 10:12:58;;;;;;;2.72;1.60;;;21.80;80.00;;;;;;5014906;28;20022;-77
2022/03/02 10:15:25;;;;;;;2.97;1.60;;;21.70;79.80;;;;;;5015198;28;20029;-77
2022/03/02 10:17:52;;;;;;;2.10;1.40;;;21.70;79.90;;;;;;5014421;28;20034;-76
2022/03/02 10:20:24;;;;;;;4.20;1.95;;;21.70;80.00;;;;;;5016317;28;20382;-75
2022/03/02 10:23:09;;;;;;;7.13;2.03;;;21.70;80.10;;;;;;5014316;28;20061;-77
2022/03/02 10:25:37;;;;;;;3.40;1.85;;;21.70;80.20;;;;;;5024490;28;20069;-77
2022/03/02 10:28:06;;;;;;;3.85;1.88;;;21.70;80.20;;;;;;5027456;28;20145;-76
2022/03/02 10:30:40;;;;;;;3.67;1.85;;;21.70;80.20;;;;;;5012345;28;20025;-77
2022/03/02 10:33:17;;;;;;;4.68;2.05;;;21.70;80.30;;;;;;5026965;28;20476;-78
2022/03/02 10:36:03;;;;;;;3.33;1.40;;;21.70;80.20;;;;;;5015679;28;20110;-78
2022/03/02 10:38:58;;;;;;;2.67;1.55;;;21.80;80.30;;;;;;5008530;28;21734;-77
2022/03/02 10:41:29;;;;;;;3.58;1.73;;;21.80;80.30;;;;;;5014122;28;20030;-78
2022/03/02 10:44:01;;;;;;;3.15;1.45;;;21.80;80.30;;;;;;5015576;28;20022;-78
2022/03/02 10:46:28;;;;;;;2.88;1.58;;;21.80;80.30;;;;;;5027166;28;20036;-78
2022/03/02 10:49:21;;;;;;;4.88;1.50;;;21.80;80.30;;;;;;5013434;28;20045;-76
2022/03/02 10:51:47;;;;;;;5.07;1.98;;;21.80;80.30;;;;;;5016383;28;20034;-77
2022/03/02 10:54:20;;;;;;;3.25;1.45;;;21.80;80.30;;;;;;5010752;28;20032;-76
2022/03/02 10:56:52;;;;;;;2.80;1.52;;;21.80;80.30;;;;;;5014297;28;20100;-77
2022/03/02 10:59:23;;;;;;;2.00;1.58;;;21.80;80.30;;;;;;5012693;28;20260;-76
2022/03/02 11:01:50;;;;;;;3.63;1.65;;;21.80;80.30;;;;;;5025013;28;20037;-77
2022/03/02 11:04:21;;;;;;;3.78;1.83;;;21.80;80.40;;;;;;5015848;28;20030;-77
2022/03/02 11:06:46;;;;;;;3.25;1.60;;;21.80;80.40;;;;;;5026076;28;20087;-76
2022/03/02 11:09:16;;;;;;;3.40;1.73;;;21.80;80.40;;;;;;5025956;28;20939;-77
2022/03/02 11:11:45;;;;;;;4.72;1.88;;;21.90;80.40;;;;;;5030191;28;20044;-78
2022/03/02 11:14:11;;;;;;;3.03;1.70;;;21.90;80.40;;;;;;5015254;28;20029;-78
2022/03/02 11:16:37;;;;;;;3.45;1.38;;;21.90;80.40;;;;;;5012993;28;20068;-77
2022/03/02 11:19:14;;;;;;;3.50;1.42;;;21.90;80.40;;;;;;5015432;28;20018;-77
2022/03/02 11:21:42;;;;;;;3.50;1.30;;;21.90;80.40;;;;;;5031801;28;20121;-76
2022/03/02 11:24:14;;;;;;;8.52;1.58;;;21.90;80.40;;;;;;5027490;28;20030;-77
2022/03/02 11:26:41;;;;;;;2.80;1.85;;;21.90;80.40;;;;;;5011867;28;20030;-78
2022/03/02 11:29:12;;;;;;;2.95;1.50;;;21.90;80.50;;;;;;5015024;28;21770;-78
2022/03/02 11:31:46;;;;;;;4.50;1.83;;;21.90;80.50;;;;;;5014548;28;20033;-77
2022/03/02 11:34:14;;;;;;;3.47;1.40;;;21.90;80.50;;;;;;5013714;28;20022;-77
2022/03/02 11:36:44;;;;;;;3.75;1.73;;;21.90;80.40;;;;;;5013046;28;20046;-76
2022/03/02 11:39:14;;;;;;;2.05;1.05;;;21.90;80.40;;;;;;5013865;28;20037;-77
2022/03/02 11:41:42;;;;;;;4.18;1.83;;;21.90;80.40;;;;;;5007544;28;20038;-78
2022/03/02 11:44:29;;;;;;;4.90;1.67;;;21.90;80.40;;;;;;5030167;28;20040;-77
2022/03/02 11:46:56;;;;;;;3.10;1.98;;;21.90;80.30;;;;;;5025026;28;20136;-77
2022/03/02 11:49:36;;;;;;;1.83;1.38;;;;;;;;;;5013554;28;20029;-76
2022/03/02 11:52:08;;;;;;;2.83;1.15;;;22.00;79.80;;;;;;5013812;28;20026;-76
2022/03/02 11:54:47;;;;;;;4.22;1.73;;;22.00;80.30;;;;;;5014082;28;20929;-78
2022/03/02 11:57:15;;;;;;;3.08;1.33;;;22.00;80.30;;;;;;5013054;28;20040;-77
2022/03/02 11:59:41;;;;;;;3.90;1.77;;;22.00;80.20;;;;;;5024816;28;20447;-77
2022/03/02 12:02:13;;;;;;;2.33;1.30;;;22.00;80.20;;;;;;5011829;28;20403;-76
2022/03/02 12:04:39;;;;;;;3.20;1.48;;;22.00;80.20;;;;;;5013625;28;20034;-77
2022/03/02 12:07:05;;;;;;;1.70;1.20;;;22.00;80.20;;;;;;5012362;28;20025;-78
2022/03/02 12:09:33;;;;;;;2.42;1.20;;;22.00;80.20;;;;;;5026236;28;20492;-76
2022/03/02 12:12:10;;;;;;;4.43;1.33;;;22.00;80.10;;;;;;5013483;28;20029;-78
2022/03/02 12:14:42;;;;;;;2.63;1.42;;;22.00;80.10;;;;;;5012772;28;20049;-77
2022/03/02 12:17:36;;;;;;;3.97;1.25;;;22.00;80.10;;;;;;5012996;28;20108;-77
2022/03/02 12:20:15;;;;;;;1.80;1.25;;;22.00;80.20;;;;;;5007972;28;20030;-76
2022/03/02 12:22:50;;;;;;;2.42;1.48;;;22.00;80.20;;;;;;5011071;28;20116;-76
2022/03/02 12:25:19;;;;;;;1.92;1.10;;;22.00;80.10;;;;;;5025559;28;20029;-76
2022/03/02 12:28:02;;;;;;;3.20;1.30;;;22.00;80.10;;;;;;5011680;28;20060;-77
2022/03/02 12:30:36;;;;;;;2.20;1.30;;;22.00;80.00;;;;;;5028504;28;20026;-76
2022/03/02 12:33:04;;;;;;;3.38;1.83;;;22.00;80.10;;;;;;5013304;28;20038;-76
2022/03/02 12:35:30;;;;;;;2.42;1.58;;;22.00;80.10;;;;;;5022043;28;20117;-78
2022/03/02 12:37:59;;;;;;;3.33;1.20;;;22.00;80.20;;;;;;5013768;28;20132;-78
2022/03/02 12:40:28;;;;;;;4.57;1.42;;;22.00;80.20;;;;;;5011178;28;20045;-78
2022/03/02 12:42:55;;;;;;;3.20;1.50;;;22.00;80.10;;;;;;5012435;28;20030;-77
2022/03/02 12:45:21;;;;;;;3.55;1.40;;;22.00;80.10;;;;;;5014117;28;20041;-76
2022/03/02 12:47:48;;;;;;;2.20;1.35;;;22.10;80.20;;;;;;5013682;28;20072;-76
2022/03/02 12:50:16;;;;;;;2.65;1.40;;;22.00;80.10;;;;;;5012511;28;21570;-77
2022/03/02 12:52:47;;;;;;;2.63;1.48;;;22.10;80.10;;;;;;5012402;28;20438;-78
2022/03/02 12:55:14;;;;;;;2.25;1.27;;;22.10;80.10;;;;;;5013720;28;20072;-77
2022/03/02 12:57:40;;;;;;;1.38;0.82;;;22.10;80.10;;;;;;5012088;28;20049;-77